Time;durP1;ratioP1;P1;durP2;ratioP2;P2;SDS_P1;SDS_P2;PMS_P1;PMS_P2;Temp;Humidity;BMP_temperature;BMP_pressure;BME280_temperature;BME280_humidity;BME280_pressure;Samples;Min_cycle;Max_cycle;Signal;HPM_P1;HPM_P2
2022/08/16 00:00:44;;;;;;;27.10;13.90;;;24.40;60.70;;;;;;7374652;19;20058;-83
2022/08/16 00:03:13;;;;;;;18.90;14.15;;;24.40;60.80;;;;;;7375804;19;20042;-83
2022/08/16 00:05:45;;;;;;;22.40;14.82;;;24.40;60.70;;;;;;7373078;19;20097;-83
2022/08/16 00:08:14;;;;;;;21.85;14.15;;;24.40;60.80;;;;;;7376798;19;20024;-82
2022/08/16 00:10:44;;;;;;;21.05;13.98;;;24.40;60.80;;;;;;7373448;19;20027;-82
2022/08/16 00:13:13;;;;;;;21.50;14.25;;;24.40;61.10;;;;;;7394463;19;20045;-82
2022/08/16 00:15:44;;;;;;;19.15;14.55;;;24.40;61.40;;;;;;7371751;19;20418;-82
2022/08/16 00:18:14;;;;;;;16.92;13.82;;;24.30;61.30;;;;;;7373696;19;20011;-82
2022/08/16 00:20:47;;;;;;;20.80;13.55;;;24.40;61.50;;;;;;7376527;19;20081;-82
2022/08/16 00:23:17;;;;;;;19.17;14.85;;;24.40;61.40;;;;;;7373266;19;20007;-82
2022/08/16 00:25:46;;;;;;;20.40;14.32;;;24.40;61.30;;;;;;7373978;19;20102;-82
2022/08/16 00:28:15;;;;;;;22.67;13.93;;;24.40;61.30;;;;;;7393223;19;20018;-82
2022/08/16 00:30:44;;;;;;;18.00;13.63;;;24.30;61.30;;;;;;7373135;19;20033;-83
2022/08/16 00:33:13;;;;;;;21.83;13.70;;;24.30;61.40;;;;;;7373727;19;20021;-83
2022/08/16 00:35:41;;;;;;;19.77;14.95;;;24.30;61.70;;;;;;7375782;19;20018;-82
2022/08/16 00:38:13;;;;;;;23.75;14.00;;;24.20;61.60;;;;;;7374684;19;20066;-82
2022/08/16 00:40:45;;;;;;;21.60;15.55;;;24.10;61.80;;;;;;7378725;19;20019;-82
2022/08/16 00:43:16;;;;;;;21.00;14.02;;;24.10;62.00;;;;;;7414746;19;20014;-82
2022/08/16 00:45:52;;;;;;;20.17;15.00;;;24.10;62.10;;;;;;7402445;19;20019;-82
2022/08/16 00:48:20;;;;;;;20.67;14.85;;;24.10;61.80;;;;;;7404963;19;20017;-83
2022/08/16 00:50:49;;;;;;;18.73;14.68;;;24.10;61.80;;;;;;7394234;19;20022;-83
2022/08/16 00:53:21;;;;;;;22.83;14.75;;;24.10;62.00;;;;;;7370807;19;20431;-83
2022/08/16 00:55:53;;;;;;;17.08;13.55;;;24.10;61.90;;;;;;7369927;19;20015;-83
2022/08/16 00:58:28;;;;;;;18.98;13.65;;;24.10;61.80;;;;;;7394801;19;20031;-83
2022/08/16 01:00:57;;;;;;;19.77;13.95;;;24.10;61.90;;;;;;7371057;19;20035;-83
2022/08/16 01:03:28;;;;;;;23.90;14.43;;;24.10;61.80;;;;;;7370559;19;20031;-82
2022/08/16 01:05:57;;;;;;;;;;;24.10;61.80;;;;;;7372161;19;20010;-83
2022/08/16 01:08:29;;;;;;;17.60;12.63;;;24.10;62.00;;;;;;7371659;19;19939;-83
2022/08/16 01:10:58;;;;;;;23.10;13.63;;;24.20;61.90;;;;;;7372298;19;20039;-83
2022/08/16 01:13:29;;;;;;;23.90;13.80;;;24.20;61.70;;;;;;7391277;19;20035;-83
2022/08/16 01:16:02;;;;;;;25.67;13.57;;;24.20;61.80;;;;;;7370612;19;20018;-83
2022/08/16 01:18:35;;;;;;;18.50;14.00;;;24.10;61.90;;;;;;7372044;19;20015;-83
2022/08/16 01:21:24;;;;;;;21.17;13.93;;;24.10;61.80;;;;;;7369983;19;20070;-83
2022/08/16 01:24:17;;;;;;;17.05;14.23;;;24.10;61.80;;;;;;7368952;19;20093;-82
2022/08/16 01:26:47;;;;;;;21.08;14.05;;;24.10;61.80;;;;;;7372195;19;20007;-82
2022/08/16 01:29:21;;;;;;;21.98;14.10;;;24.20;61.80;;;;;;7374203;19;20011;-82
2022/08/16 01:31:50;;;;;;;18.63;13.48;;;24.10;61.90;;;;;;7373202;19;20041;-83
2022/08/16 01:34:20;;;;;;;22.40;13.75;;;24.20;61.90;;;;;;7392586;19;20035;-83
2022/08/16 01:36:49;;;;;;;17.42;13.70;;;24.20;62.00;;;;;;7371707;19;20026;-84
2022/08/16 01:39:21;;;;;;;18.30;14.35;;;24.20;62.10;;;;;;7373227;19;20343;-83
2022/08/16 01:41:49;;;;;;;;;;;24.10;61.90;;;;;;7375278;19;20048;-83
2022/08/16 01:44:18;;;;;;;26.45;15.35;;;24.10;61.90;;;;;;7376573;19;19961;-82
2022/08/16 01:46:49;;;;;;;19.90;14.02;;;24.10;61.90;;;;;;7372705;19;20031;-83
2022/08/16 01:49:20;;;;;;;;;;;24.00;62.20;;;;;;7392274;19;20303;-83
2022/08/16 01:51:52;;;;;;;22.90;14.63;;;24.00;62.40;;;;;;7367491;19;19923;-82
2022/08/16 01:54:24;;;;;;;21.38;14.80;;;24.00;62.50;;;;;;7370135;19;20078;-82
2022/08/16 01:56:54;;;;;;;18.75;15.30;;;23.90;62.80;;;;;;7370029;19;20018;-83
2022/08/16 01:59:23;;;;;;;21.75;14.55;;;23.90;62.50;;;;;;7368691;19;20053;-83
2022/08/16 02:01:54;;;;;;;22.30;14.07;;;24.00;62.80;;;;;;7368822;19;20138;-82
2022/08/16 02:04:24;;;;;;;20.33;14.13;;;24.00;62.70;;;;;;7389913;19;20026;-82
2022/08/16 02:06:54;;;;;;;26.37;15.17;;;24.00;62.70;;;;;;7369276;19;20032;-82
2022/08/16 02:09:27;;;;;;;24.55;16.50;;;23.90;62.50;;;;;;7368365;19;20275;-82
2022/08/16 02:12:01;;;;;;;23.67;15.60;;;23.90;62.70;;;;;;7369795;19;20131;-82
2022/08/16 02:14:31;;;;;;;24.90;16.73;;;23.90;63.00;;;;;;7369059;19;20014;-82
2022/08/16 02:17:03;;;;;;;21.25;14.48;;;23.90;63.00;;;;;;7368169;19;20525;-82
2022/08/16 02:19:32;;;;;;;;;;;23.90;62.80;;;;;;7390272;19;20014;-82
2022/08/16 02:22:02;;;;;;;23.98;15.00;;;23.90;62.80;;;;;;7368036;19;20009;-82
2022/08/16 02:24:34;;;;;;;19.10;14.25;;;23.90;62.80;;;;;;7368023;19;20537;-83
2022/08/16 02:27:03;;;;;;;25.58;15.05;;;23.90;63.10;;;;;;7369751;19;20011;-82
2022/08/16 02:29:31;;;;;;;20.63;15.93;;;23.90;63.00;;;;;;7366761;19;20081;-83
2022/08/16 02:32:00;;;;;;;24.15;16.55;;;23.90;63.00;;;;;;7367644;19;20035;-83
2022/08/16 02:34:29;;;;;;;23.08;15.57;;;23.90;62.90;;;;;;7388251;19;20086;-83
2022/08/16 02:36:58;;;;;;;22.63;15.98;;;23.90;63.00;;;;;;7369874;19;20018;-83
2022/08/16 02:39:27;;;;;;;22.88;15.43;;;23.80;63.00;;;;;;7374060;19;20062;-82
2022/08/16 02:41:58;;;;;;;21.08;16.08;;;23.80;62.80;;;;;;7393202;19;20314;-81
2022/08/16 02:44:27;;;;;;;;;;;23.80;63.00;;;;;;7391450;19;20014;-81
2022/08/16 02:46:55;;;;;;;26.55;15.82;;;23.70;63.10;;;;;;7380166;19;19965;-82
2022/08/16 02:49:24;;;;;;;20.25;14.63;;;23.70;63.30;;;;;;7389115;19;20501;-83
2022/08/16 02:51:53;;;;;;;18.40;14.13;;;23.60;63.50;;;;;;7367505;19;20014;-83
2022/08/16 02:54:22;;;;;;;20.38;14.77;;;23.70;63.60;;;;;;7367449;19;20010;-82
2022/08/16 02:56:51;;;;;;;20.77;14.32;;;23.70;63.70;;;;;;7367560;19;20081;-83
2022/08/16 02:59:23;;;;;;;25.25;14.80;;;23.60;63.80;;;;;;7368009;19;20548;-83
2022/08/16 03:01:52;;;;;;;23.17;15.40;;;23.70;64.00;;;;;;7367741;19;20039;-83
2022/08/16 03:04:21;;;;;;;19.35;15.25;;;23.80;63.50;;;;;;7388495;19;20031;-83
2022/08/16 03:06:50;;;;;;;27.48;14.50;;;23.80;63.40;;;;;;7367676;19;20014;-83
2022/08/16 03:09:19;;;;;;;18.15;14.65;;;23.80;63.70;;;;;;7367066;19;20022;-83
2022/08/16 03:11:48;;;;;;;22.48;14.25;;;23.70;63.60;;;;;;7367063;19;20083;-83
2022/08/16 03:14:17;;;;;;;19.00;15.00;;;23.80;64.00;;;;;;7364389;19;20339;-83
2022/08/16 03:16:48;;;;;;;17.23;14.82;;;23.90;63.50;;;;;;7367887;19;20035;-83
2022/08/16 03:19:16;;;;;;;;;;;23.80;63.00;;;;;;7398286;19;20022;-83
2022/08/16 03:21:45;;;;;;;21.45;15.10;;;23.90;63.30;;;;;;7376118;19;19934;-82
2022/08/16 03:24:14;;;;;;;22.85;14.95;;;23.80;63.40;;;;;;7375942;19;20044;-81
2022/08/16 03:26:43;;;;;;;20.25;14.85;;;23.80;63.90;;;;;;7374175;19;20043;-81
2022/08/16 03:29:13;;;;;;;23.33;15.52;;;23.70;64.00;;;;;;7376080;19;20074;-82
2022/08/16 03:31:41;;;;;;;19.98;13.90;;;23.70;63.90;;;;;;7375065;19;20029;-82
2022/08/16 03:34:13;;;;;;;21.95;14.98;;;23.70;63.70;;;;;;7396894;19;20090;-83
2022/08/16 03:36:41;;;;;;;;;;;23.70;63.60;;;;;;7374356;19;20091;-84
2022/08/16 03:39:10;;;;;;;21.85;14.63;;;23.70;63.70;;;;;;7374990;19;19930;-83
2022/08/16 03:41:40;;;;;;;20.45;15.63;;;23.70;63.70;;;;;;7376200;19;20031;-83
2022/08/16 03:44:09;;;;;;;18.77;15.05;;;23.60;64.00;;;;;;7376564;19;20007;-83
2022/08/16 03:46:37;;;;;;;20.73;15.32;;;23.70;64.10;;;;;;7375634;19;20039;-83
2022/08/16 03:49:09;;;;;;;19.17;15.20;;;23.70;64.10;;;;;;7398773;19;20018;-83
2022/08/16 03:51:41;;;;;;;21.10;14.45;;;23.70;64.20;;;;;;7376354;19;20017;-83
2022/08/16 03:54:10;;;;;;;24.75;16.98;;;23.70;63.80;;;;;;7376210;19;20393;-82
2022/08/16 03:56:39;;;;;;;27.38;16.75;;;23.70;63.40;;;;;;7374372;19;20006;-83
2022/08/16 03:59:08;;;;;;;23.20;15.38;;;23.60;63.60;;;;;;7375229;19;20063;-83
2022/08/16 04:01:37;;;;;;;24.88;15.65;;;23.60;63.80;;;;;;7379194;19;20027;-82
2022/08/16 04:04:06;;;;;;;24.08;14.70;;;23.60;64.10;;;;;;7390843;19;20014;-83
2022/08/16 04:06:35;;;;;;;18.45;14.23;;;23.60;64.10;;;;;;7373560;19;20108;-82
2022/08/16 04:09:06;;;;;;;20.40;13.98;;;23.60;63.80;;;;;;7373790;19;20018;-82
2022/08/16 04:11:35;;;;;;;21.33;15.32;;;23.60;63.70;;;;;;7373123;19;20011;-82
2022/08/16 04:14:04;;;;;;;20.23;14.45;;;23.60;63.40;;;;;;7372259;19;20018;-82
2022/08/16 04:16:32;;;;;;;27.70;15.52;;;23.60;63.30;;;;;;7396461;19;20433;-82
2022/08/16 04:19:02;;;;;;;22.17;15.00;;;23.50;63.50;;;;;;7374669;19;20014;-83
2022/08/16 04:21:32;;;;;;;25.20;15.15;;;23.40;63.80;;;;;;7373087;19;20014;-81
2022/08/16 04:24:01;;;;;;;26.15;15.63;;;23.40;64.10;;;;;;7374879;19;20086;-83
2022/08/16 04:26:33;;;;;;;22.83;14.57;;;23.40;64.10;;;;;;7375383;19;20055;-82
2022/08/16 04:29:03;;;;;;;19.95;15.30;;;23.40;64.00;;;;;;7374085;19;20037;-83
2022/08/16 04:31:32;;;;;;;20.10;14.48;;;23.40;63.90;;;;;;7392986;19;20046;-82
2022/08/16 04:34:00;;;;;;;20.52;13.60;;;23.40;64.10;;;;;;7378647;19;20031;-82
2022/08/16 04:36:29;;;;;;;20.65;14.15;;;23.40;64.20;;;;;;7390676;19;20027;-82
2022/08/16 04:38:58;;;;;;;23.85;14.85;;;23.40;65.00;;;;;;7403126;19;20011;-82
2022/08/16 04:41:30;;;;;;;24.42;13.85;;;23.40;64.00;;;;;;7397826;19;20025;-82
2022/08/16 04:44:01;;;;;;;20.58;13.60;;;23.40;63.90;;;;;;7385863;19;20448;-82
2022/08/16 04:46:30;;;;;;;22.23;14.05;;;23.40;63.90;;;;;;7393452;19;20022;-82
2022/08/16 04:48:59;;;;;;;21.92;14.15;;;23.40;63.80;;;;;;7371921;19;20137;-82
2022/08/16 04:51:27;;;;;;;21.10;13.52;;;23.40;63.80;;;;;;7372779;19;20115;-82
2022/08/16 04:53:56;;;;;;;21.05;12.65;;;23.40;63.90;;;;;;7371639;19;20035;-82
2022/08/16 04:56:25;;;;;;;19.65;14.90;;;23.40;64.10;;;;;;7373842;19;20134;-81
2022/08/16 04:58:54;;;;;;;23.65;13.85;;;23.40;64.00;;;;;;7373035;19;20449;-82
2022/08/16 05:01:25;;;;;;;17.70;12.88;;;23.30;64.10;;;;;;7395005;19;20030;-81
2022/08/16 05:03:54;;;;;;;22.80;14.02;;;23.30;64.50;;;;;;7373286;19;20017;-82
2022/08/16 05:06:23;;;;;;;16.45;12.13;;;23.30;64.50;;;;;;7371740;19;20007;-82
2022/08/16 05:08:52;;;;;;;24.10;13.75;;;23.40;64.50;;;;;;7373314;19;20077;-83
2022/08/16 05:11:21;;;;;;;22.02;13.70;;;23.40;64.40;;;;;;7372804;19;20014;-83
2022/08/16 05:13:50;;;;;;;25.25;13.80;;;23.40;64.40;;;;;;7374327;19;20021;-83
2022/08/16 05:16:23;;;;;;;19.77;12.93;;;23.40;64.20;;;;;;7393810;19;20087;-81
2022/08/16 05:18:57;;;;;;;19.83;12.73;;;23.30;64.30;;;;;;7373679;19;20078;-83
2022/08/16 05:21:27;;;;;;;18.80;13.07;;;23.30;64.50;;;;;;7371527;19;20081;-83
2022/08/16 05:23:57;;;;;;;20.10;12.90;;;23.30;64.50;;;;;;7373072;19;20011;-83
2022/08/16 05:26:26;;;;;;;18.02;14.10;;;23.30;64.60;;;;;;7376436;19;20035;-82
2022/08/16 05:28:55;;;;;;;22.85;14.32;;;23.30;64.50;;;;;;7375983;19;20027;-82
2022/08/16 05:31:24;;;;;;;16.02;13.90;;;23.30;64.80;;;;;;7396116;19;20015;-82
2022/08/16 05:33:56;;;;;;;21.80;12.95;;;23.40;64.70;;;;;;7375386;19;20717;-82
2022/08/16 05:36:24;;;;;;;17.55;11.98;;;23.30;64.90;;;;;;7375854;19;20006;-82
2022/08/16 05:38:53;;;;;;;21.48;12.55;;;23.40;64.60;;;;;;7375486;19;20018;-82
2022/08/16 05:41:23;;;;;;;22.55;14.02;;;23.40;65.20;;;;;;7374072;19;20018;-82
2022/08/16 05:43:52;;;;;;;19.83;13.65;;;23.40;64.10;;;;;;7375165;19;20081;-82
2022/08/16 05:46:20;;;;;;;19.60;15.00;;;23.30;64.40;;;;;;7397794;19;20473;-82
2022/08/16 05:48:49;;;;;;;16.52;13.40;;;23.30;64.60;;;;;;7377192;19;20011;-82
2022/08/16 05:51:20;;;;;;;18.08;12.45;;;23.30;64.90;;;;;;7374140;19;20010;-82
2022/08/16 05:53:49;;;;;;;;;;;23.20;65.00;;;;;;7376953;19;20015;-82
2022/08/16 05:56:19;;;;;;;23.10;12.13;;;23.30;64.90;;;;;;7375198;19;19999;-82
2022/08/16 05:58:48;;;;;;;17.98;11.48;;;23.40;64.80;;;;;;7375983;19;20029;-82
2022/08/16 06:01:19;;;;;;;16.17;11.55;;;23.40;64.90;;;;;;7395520;19;20029;-83
2022/08/16 06:03:48;;;;;;;18.42;12.75;;;23.50;64.90;;;;;;7374037;19;20118;-82
2022/08/16 06:06:20;;;;;;;19.75;11.25;;;23.50;64.40;;;;;;7374662;19;20023;-82
2022/08/16 06:08:49;;;;;;;19.60;12.98;;;23.50;64.50;;;;;;7374338;19;20010;-82
2022/08/16 06:11:17;;;;;;;21.98;13.48;;;23.60;64.70;;;;;;7375315;19;20789;-81
2022/08/16 06:13:48;;;;;;;18.75;13.32;;;23.60;64.90;;;;;;7374297;19;20087;-82
2022/08/16 06:16:16;;;;;;;27.73;13.40;;;23.70;64.90;;;;;;7396010;19;20015;-82
2022/08/16 06:18:45;;;;;;;23.60;14.43;;;23.80;65.60;;;;;;7374255;19;20014;-82
2022/08/16 06:21:16;;;;;;;15.75;12.50;;;23.80;64.40;;;;;;7373404;19;20014;-82
2022/08/16 06:23:47;;;;;;;19.58;13.10;;;23.80;64.30;;;;;;7375243;19;20035;-82
2022/08/16 06:26:16;;;;;;;17.20;11.40;;;23.90;64.40;;;;;;7375478;19;20186;-81
2022/08/16 06:28:45;;;;;;;16.02;12.57;;;23.90;64.20;;;;;;7378699;19;20023;-82
2022/08/16 06:31:16;;;;;;;24.77;13.38;;;24.00;64.10;;;;;;7407809;19;20010;-82
2022/08/16 06:33:46;;;;;;;19.00;13.25;;;24.00;64.40;;;;;;7398617;19;20022;-82
2022/08/16 06:36:15;;;;;;;29.73;14.15;;;24.10;64.40;;;;;;7395775;19;20046;-82
2022/08/16 06:38:47;;;;;;;21.73;13.07;;;24.10;64.00;;;;;;7374632;19;20021;-81
2022/08/16 06:41:16;;;;;;;22.60;13.30;;;24.00;63.60;;;;;;7373107;19;20415;-81
2022/08/16 06:43:46;;;;;;;19.02;13.15;;;24.00;63.90;;;;;;7374134;19;20074;-83
2022/08/16 06:46:27;;;;;;;21.13;12.77;;;24.10;64.30;;;;;;7397288;19;20018;-84
2022/08/16 06:48:56;;;;;;;;;;;24.10;64.30;;;;;;7373323;19;20010;-81
2022/08/16 06:51:28;;;;;;;24.10;13.63;;;24.30;64.20;;;;;;7373697;19;19945;-83
2022/08/16 06:54:02;;;;;;;22.67;13.90;;;24.30;63.90;;;;;;7379718;19;20379;-82
2022/08/16 06:56:31;;;;;;;18.35;12.18;;;24.30;64.10;;;;;;7379118;19;20021;-81
2022/08/16 06:59:00;;;;;;;22.85;12.20;;;24.30;64.10;;;;;;7381174;19;20086;-79
2022/08/16 07:01:40;;;;;;;20.23;11.57;;;24.30;64.00;;;;;;7402262;19;20035;-81
2022/08/16 07:04:14;;;;;;;24.27;13.23;;;24.30;63.90;;;;;;7380092;19;20022;-80
2022/08/16 07:06:45;;;;;;;19.58;12.85;;;24.40;63.60;;;;;;7377518;19;20054;-80
2022/08/16 07:18:51;;;;;;;26.83;12.73;;;24.40;63.90;;;;;;7376360;19;20011;-82
2022/08/16 07:21:29;;;;;;;22.70;13.57;;;24.50;64.40;;;;;;7381720;19;20069;-81
2022/08/16 07:24:27;;;;;;;15.93;11.57;;;24.60;64.40;;;;;;7330564;19;20014;-82
2022/08/16 07:27:18;;;;;;;18.35;11.57;;;24.60;64.10;;;;;;7402171;19;20014;-83
2022/08/16 07:29:49;;;;;;;20.05;11.85;;;24.60;63.90;;;;;;7378591;19;20046;-77
2022/08/16 07:32:19;;;;;;;18.58;11.80;;;24.60;63.60;;;;;;7374022;19;20014;-78
2022/08/16 07:34:48;;;;;;;15.45;11.00;;;24.70;63.50;;;;;;7378734;19;20049;-76
2022/08/16 07:37:18;;;;;;;18.77;11.23;;;24.70;63.50;;;;;;7399740;19;20018;-76
2022/08/16 07:39:46;;;;;;;24.83;11.45;;;24.70;63.30;;;;;;7378352;19;20051;-77
2022/08/16 07:42:15;;;;;;;14.82;10.25;;;24.70;62.90;;;;;;7378340;19;20051;-77
2022/08/16 07:44:46;;;;;;;19.75;11.18;;;24.70;62.50;;;;;;7380920;19;20015;-77
2022/08/16 07:47:17;;;;;;;15.52;10.80;;;24.70;62.40;;;;;;7376800;19;20033;-77
2022/08/16 07:49:45;;;;;;;;;;;24.70;62.20;;;;;;7372795;19;20017;-76
2022/08/16 07:52:14;;;;;;;18.60;10.85;;;24.80;62.40;;;;;;7395222;19;20001;-75
2022/08/16 07:54:43;;;;;;;18.60;11.40;;;24.70;62.50;;;;;;7378388;19;20696;-76
2022/08/16 07:57:12;;;;;;;23.67;11.07;;;24.80;62.80;;;;;;7378323;19;20043;-76
2022/08/16 07:59:43;;;;;;;15.38;10.88;;;24.70;62.80;;;;;;7371492;19;20018;-76
2022/08/16 08:02:12;;;;;;;16.58;10.23;;;24.80;62.90;;;;;;7373081;19;20044;-75
2022/08/16 08:04:44;;;;;;;20.30;10.68;;;24.80;62.70;;;;;;7394803;19;20078;-76
2022/08/16 08:07:13;;;;;;;17.50;10.07;;;24.80;62.30;;;;;;7376790;19;20031;-77
2022/08/16 08:09:42;;;;;;;28.65;10.38;;;24.80;62.10;;;;;;7373123;19;20021;-77
2022/08/16 08:12:10;;;;;;;21.38;10.57;;;24.90;61.90;;;;;;7376248;19;20017;-77
2022/08/16 08:14:39;;;;;;;15.98;9.65;;;24.90;61.60;;;;;;7376299;19;20014;-77
2022/08/16 08:17:08;;;;;;;22.70;10.02;;;24.90;61.30;;;;;;7376319;19;20082;-76
2022/08/16 08:19:37;;;;;;;19.08;10.13;;;25.00;60.80;;;;;;7398097;19;20018;-77
2022/08/16 08:22:10;;;;;;;24.17;9.85;;;25.10;60.80;;;;;;7375005;19;20014;-76
2022/08/16 08:24:39;;;;;;;20.55;9.57;;;25.10;60.80;;;;;;7372236;19;20007;-78
2022/08/16 08:27:09;;;;;;;21.23;10.40;;;25.20;60.50;;;;;;7375698;19;20023;-77
2022/08/16 08:29:39;;;;;;;19.75;9.20;;;25.30;60.10;;;;;;7373238;19;20089;-77
2022/08/16 08:32:09;;;;;;;20.52;9.48;;;25.40;60.20;;;;;;7374606;19;20006;-76
2022/08/16 08:34:38;;;;;;;19.67;9.53;;;25.40;59.70;;;;;;7396359;19;20174;-77
2022/08/16 08:37:09;;;;;;;24.00;9.40;;;25.50;59.60;;;;;;7375737;19;20263;-77
2022/08/16 08:39:39;;;;;;;17.25;9.05;;;25.50;59.50;;;;;;7375453;19;20415;-77
2022/08/16 08:42:09;;;;;;;18.42;10.07;;;25.60;59.50;;;;;;7375668;19;20003;-76
2022/08/16 08:44:38;;;;;;;18.40;8.75;;;25.60;59.40;;;;;;7373619;19;20117;-77
2022/08/16 08:47:08;;;;;;;16.63;8.90;;;25.70;59.60;;;;;;7373336;19;20121;-77
2022/08/16 08:49:38;;;;;;;15.60;7.68;;;25.80;59.50;;;;;;7394707;19;20017;-77
2022/08/16 08:52:10;;;;;;;19.17;8.07;;;25.90;59.10;;;;;;7374635;19;20089;-76
2022/08/16 08:54:39;;;;;;;15.23;7.90;;;25.90;59.20;;;;;;7375928;19;20017;-77
2022/08/16 08:57:08;;;;;;;14.30;7.20;;;26.00;58.40;;;;;;7377648;19;20059;-77
2022/08/16 08:59:37;;;;;;;19.52;7.28;;;26.00;57.70;;;;;;7375469;19;20018;-76
2022/08/16 09:02:07;;;;;;;9.85;6.43;;;26.00;57.50;;;;;;7375788;19;20018;-77
2022/08/16 09:04:36;;;;;;;8.60;7.03;;;26.10;57.20;;;;;;7398537;19;20018;-77
2022/08/16 09:07:05;;;;;;;12.88;7.05;;;26.10;57.20;;;;;;7377728;19;20077;-77
2022/08/16 09:09:37;;;;;;;11.32;6.70;;;26.10;57.40;;;;;;7373680;19;20017;-77
2022/08/16 09:12:07;;;;;;;12.75;6.75;;;26.20;57.20;;;;;;7375105;19;20010;-77
2022/08/16 09:14:37;;;;;;;11.65;6.43;;;26.10;56.00;;;;;;7374542;19;20021;-76
2022/08/16 09:17:07;;;;;;;12.00;6.37;;;26.20;56.10;;;;;;7374136;19;20018;-76
2022/08/16 09:19:36;;;;;;;16.10;6.55;;;26.20;56.10;;;;;;7396059;19;20342;-76
2022/08/16 09:22:05;;;;;;;16.17;6.13;;;26.30;56.10;;;;;;7373018;19;20020;-76
2022/08/16 09:24:37;;;;;;;15.40;5.95;;;26.30;56.20;;;;;;7370040;19;20082;-77
2022/08/16 09:27:06;;;;;;;9.68;6.50;;;26.30;56.30;;;;;;7368728;19;20387;-77
2022/08/16 09:29:35;;;;;;;14.45;6.10;;;26.40;55.90;;;;;;7369960;19;20085;-77
2022/08/16 09:32:05;;;;;;;13.88;6.10;;;26.40;55.80;;;;;;7369166;19;20020;-77
2022/08/16 09:34:34;;;;;;;10.95;6.20;;;26.50;55.40;;;;;;7391541;19;20014;-77
2022/08/16 09:37:02;;;;;;;10.98;6.03;;;26.60;55.20;;;;;;7369324;19;20023;-77
2022/08/16 09:39:31;;;;;;;13.32;5.60;;;26.70;55.00;;;;;;7367367;19;20109;-77
2022/08/16 09:42:03;;;;;;;9.60;6.03;;;26.70;56.00;;;;;;7369141;19;20023;-77
2022/08/16 09:44:32;;;;;;;13.02;5.97;;;26.80;55.30;;;;;;7368472;19;20014;-77
2022/08/16 09:47:00;;;;;;;13.07;6.15;;;26.70;55.00;;;;;;7368837;19;20010;-78
2022/08/16 09:49:30;;;;;;;11.50;6.28;;;26.80;54.70;;;;;;7386192;19;20105;-77
2022/08/16 09:51:58;;;;;;;15.48;5.75;;;26.80;54.20;;;;;;7367052;19;20023;-77
2022/08/16 09:54:29;;;;;;;9.73;5.78;;;26.80;54.60;;;;;;7369412;19;20013;-77
2022/08/16 09:56:57;;;;;;;13.63;5.97;;;26.90;54.40;;;;;;7366497;19;20015;-78
2022/08/16 09:59:30;;;;;;;11.68;6.13;;;26.80;54.50;;;;;;7368181;19;20319;-77
2022/08/16 10:01:59;;;;;;;16.23;6.10;;;26.80;54.40;;;;;;7367911;19;20119;-76
2022/08/16 10:04:28;;;;;;;9.50;5.63;;;26.90;54.20;;;;;;7388763;19;20666;-76
2022/08/16 10:06:59;;;;;;;12.18;5.88;;;26.90;54.20;;;;;;7365529;19;20026;-76
2022/08/16 10:09:28;;;;;;;12.07;6.15;;;26.90;54.30;;;;;;7368668;19;20481;-76
2022/08/16 10:14:41;;;;;;;12.35;5.78;;;27.00;53.90;;;;;;7369097;19;20014;-77
2022/08/16 10:17:09;;;;;;;12.23;6.18;;;27.00;54.10;;;;;;7366719;19;20378;-77
2022/08/16 10:19:38;;;;;;;19.75;6.22;;;27.00;54.30;;;;;;7389137;19;20017;-77
2022/08/16 10:22:08;;;;;;;15.75;5.88;;;27.00;54.10;;;;;;7366046;19;20097;-76
2022/08/16 10:24:37;;;;;;;11.18;5.97;;;27.00;53.80;;;;;;7366400;19;20024;-77
2022/08/16 10:27:05;;;;;;;13.18;6.50;;;27.00;54.10;;;;;;7366418;19;20595;-77
2022/08/16 10:29:34;;;;;;;11.45;6.50;;;27.00;53.80;;;;;;7368352;19;20016;-77
2022/08/16 10:32:08;;;;;;;12.85;6.32;;;27.10;54.00;;;;;;7364294;19;20094;-78
2022/08/16 10:34:36;;;;;;;13.15;5.63;;;27.10;54.10;;;;;;7389558;19;20042;-77
2022/08/16 10:37:05;;;;;;;10.95;6.20;;;27.10;54.40;;;;;;7367820;19;20036;-77
2022/08/16 10:39:34;;;;;;;10.95;7.15;;;27.20;54.40;;;;;;7366037;19;20011;-77
2022/08/16 10:42:03;;;;;;;12.15;6.70;;;27.20;54.50;;;;;;7367232;19;20015;-77
2022/08/16 10:44:32;;;;;;;10.80;6.07;;;27.30;53.90;;;;;;7367523;19;20135;-77
2022/08/16 10:47:06;;;;;;;9.57;5.97;;;27.40;53.50;;;;;;7366957;19;20023;-77
2022/08/16 10:49:35;;;;;;;14.25;6.10;;;27.40;53.60;;;;;;7388733;19;20453;-77
2022/08/16 10:52:05;;;;;;;12.40;6.25;;;27.40;53.50;;;;;;7366059;19;20379;-77
2022/08/16 10:54:34;;;;;;;11.60;6.13;;;27.40;53.70;;;;;;7366163;19;20550;-77
2022/08/16 10:57:05;;;;;;;11.93;6.53;;;27.40;53.50;;;;;;7369038;19;20078;-77
2022/08/16 10:59:36;;;;;;;14.75;6.05;;;27.60;53.40;;;;;;7367017;19;20032;-77
2022/08/16 11:02:07;;;;;;;12.15;5.90;;;27.50;52.50;;;;;;7366541;19;20312;-77
2022/08/16 11:04:36;;;;;;;12.65;6.00;;;27.60;52.80;;;;;;7388371;19;20021;-77
2022/08/16 11:07:07;;;;;;;11.77;5.40;;;27.60;53.00;;;;;;7366692;19;20745;-77
2022/08/16 11:09:35;;;;;;;12.60;5.70;;;27.70;53.10;;;;;;7364990;19;20025;-76
2022/08/16 11:12:05;;;;;;;8.13;5.65;;;27.90;53.00;;;;;;7366682;19;20255;-77
2022/08/16 11:14:34;;;;;;;19.13;11.02;;;28.10;52.90;;;;;;7367476;19;20571;-77
2022/08/16 11:17:05;;;;;;;13.43;5.93;;;28.20;52.90;;;;;;7364458;19;20018;-77
2022/08/16 11:19:36;;;;;;;11.40;5.53;;;28.30;52.20;;;;;;7384357;19;20015;-77
2022/08/16 11:22:05;;;;;;;9.48;5.80;;;28.30;51.70;;;;;;7365730;19;20666;-77
2022/08/16 11:24:38;;;;;;;9.73;5.50;;;28.30;51.50;;;;;;7367433;19;20335;-77
2022/08/16 11:27:08;;;;;;;8.40;5.55;;;28.20;51.60;;;;;;7365692;19;20078;-77
2022/08/16 11:29:36;;;;;;;9.43;5.80;;;28.20;51.70;;;;;;7365674;19;20076;-76
2022/08/16 11:32:07;;;;;;;13.52;5.93;;;28.10;51.90;;;;;;7365167;19;20008;-82
2022/08/16 11:34:38;;;;;;;11.13;6.10;;;28.10;52.40;;;;;;7385551;19;20436;-83
2022/08/16 11:37:07;;;;;;;8.38;6.00;;;28.00;52.70;;;;;;7361871;19;20018;-88
2022/08/16 11:39:39;;;;;;;12.00;6.53;;;28.00;53.10;;;;;;7368594;19;20022;-88
2022/08/16 11:42:10;;;;;;;14.02;6.25;;;28.00;53.20;;;;;;7374827;19;20531;-87
2022/08/16 11:44:39;;;;;;;12.77;6.50;;;27.90;53.30;;;;;;7371854;19;20017;-88
2022/08/16 11:47:12;;;;;;;13.00;6.18;;;27.90;53.20;;;;;;7370787;19;20011;-88
2022/08/16 11:49:44;;;;;;;10.50;6.45;;;28.00;53.00;;;;;;7391973;19;20015;-88
2022/08/16 11:52:16;;;;;;;14.10;6.30;;;27.90;52.90;;;;;;7373759;19;20022;-89
2022/08/16 11:54:46;;;;;;;15.55;6.68;;;27.90;52.60;;;;;;7372540;19;20090;-89
2022/08/16 11:57:16;;;;;;;13.52;6.57;;;27.90;53.30;;;;;;7375179;19;20420;-88
2022/08/16 11:59:45;;;;;;;10.77;6.43;;;28.00;53.40;;;;;;7374031;19;20014;-88
2022/08/16 12:02:20;;;;;;;11.05;6.20;;;28.00;52.80;;;;;;7374268;19;20011;-88
2022/08/16 12:04:58;;;;;;;12.70;6.40;;;28.10;52.80;;;;;;7375701;19;20014;-86
2022/08/16 12:07:30;;;;;;;16.77;7.40;;;28.10;52.90;;;;;;7396188;19;20473;-89
2022/08/16 12:10:00;;;;;;;9.75;6.60;;;28.10;52.50;;;;;;7374259;19;20007;-88
2022/08/16 12:12:30;;;;;;;10.43;6.35;;;28.10;52.50;;;;;;7371184;19;20010;-89
2022/08/16 12:15:04;;;;;;;12.05;6.40;;;28.10;52.60;;;;;;7371729;19;20018;-86
2022/08/16 12:17:34;;;;;;;18.95;6.93;;;28.10;52.60;;;;;;7380301;19;20015;-87
2022/08/16 12:22:59;;;;;;;16.15;6.97;;;28.10;53.10;;;;;;7379132;19;20410;-81
2022/08/16 12:25:33;;;;;;;9.93;6.22;;;28.10;52.80;;;;;;7412579;19;20018;-89
2022/08/16 12:57:35;;;;;;;9.90;6.07;;;28.00;51.90;;;;;;7379940;19;20010;-90
2022/08/16 13:00:04;;;;;;;12.75;5.78;;;28.00;52.10;;;;;;7401387;19;20010;-87
2022/08/16 13:02:43;;;;;;;;;;;;;;;;;;;;;
2022/08/16 13:05:12;;;;;;;10.98;5.35;;;28.00;52.00;;;;;;7376606;19;20022;-88
2022/08/16 13:07:42;;;;;;;10.68;5.57;;;28.10;52.00;;;;;;7390966;19;20048;-87
2022/08/16 13:10:14;;;;;;;12.95;5.53;;;28.20;51.80;;;;;;7367693;19;20017;-85
2022/08/16 13:12:50;;;;;;;11.57;5.40;;;28.30;51.60;;;;;;7380430;19;20018;-91
2022/08/16 13:15:21;;;;;;;12.18;5.53;;;28.40;51.30;;;;;;7382897;19;20477;-89
2022/08/16 13:17:50;;;;;;;14.75;5.38;;;28.50;50.90;;;;;;7385527;19;20037;-88
2022/08/16 13:20:22;;;;;;;9.88;5.75;;;28.50;50.70;;;;;;7378912;19;20024;-86
2022/08/16 13:22:56;;;;;;;8.95;5.97;;;28.40;50.50;;;;;;7376148;19;20083;-91
2022/08/16 13:25:27;;;;;;;11.95;5.57;;;28.50;50.40;;;;;;7395949;19;20028;-88
2022/08/16 13:27:59;;;;;;;12.02;5.75;;;28.50;50.80;;;;;;7378264;19;20099;-91
2022/08/16 13:30:29;;;;;;;7.72;5.50;;;28.40;51.30;;;;;;7377082;19;20086;-90
2022/08/16 13:32:58;;;;;;;9.27;5.63;;;28.30;51.50;;;;;;7374053;19;20010;-88
2022/08/16 13:35:28;;;;;;;10.63;5.78;;;28.40;52.00;;;;;;7373574;19;20025;-89